Time;durP1;ratioP1;P1;durP2;ratioP2;P2;SDS_P1;SDS_P2;PMS_P1;PMS_P2;Temp;Humidity;BMP_temperature;BMP_pressure;BME280_temperature;BME280_humidity;BME280_pressure;Samples;Min_cycle;Max_cycle;Signal;HPM_P1;HPM_P2
2020/12/02 00:00:07;;;;;;;20.05;12.05;;;;;;;-0.19;91.96;100322.84;1808478;79;21069;-66
2020/12/02 00:02:42;;;;;;;20.40;13.45;;;;;;;-0.17;91.89;100326.30;1808170;79;21485;-67
2020/12/02 00:05:11;;;;;;;19.48;12.10;;;;;;;-0.15;91.81;100328.87;1801929;79;21145;-65
2020/12/02 00:07:40;;;;;;;16.90;11.73;;;;;;;-0.14;91.72;100330.18;1808531;79;21148;-66
2020/12/02 00:10:09;;;;;;;19.82;12.23;;;;;;;-0.12;91.52;100331.48;1779965;79;21180;-66
2020/12/02 00:12:37;;;;;;;20.55;12.53;;;;;;;-0.11;91.63;100337.04;1813338;79;21088;-66
2020/12/02 00:15:06;;;;;;;17.80;11.75;;;;;;;-0.11;91.47;100333.20;1814192;79;21049;-66
2020/12/02 00:17:34;;;;;;;15.38;10.85;;;;;;;-0.11;91.50;100329.38;1814214;79;21050;-66
2020/12/02 00:20:05;;;;;;;14.93;10.60;;;;;;;-0.11;91.28;100330.23;1814226;78;21124;-65
2020/12/02 00:22:35;;;;;;;17.95;11.70;;;;;;;-0.12;91.20;100327.23;1813946;79;21526;-66
2020/12/02 00:25:05;;;;;;;19.65;12.88;;;;;;;-0.12;91.38;100327.23;1813582;79;21088;-66
2020/12/02 00:27:33;;;;;;;16.30;10.40;;;;;;;-0.09;91.32;100327.28;1813655;79;21164;-66
2020/12/02 00:30:00;;;;;;;14.15;10.08;;;;;;;-0.09;91.21;100332.39;1813641;79;21148;-66
2020/12/02 00:32:34;;;;;;;15.68;10.70;;;;;;;-0.08;91.13;100325.59;1813755;78;21049;-66
2020/12/02 00:35:02;;;;;;;15.05;10.45;;;;;;;-0.05;91.17;100325.64;1813665;77;22278;-65
2020/12/02 00:37:29;;;;;;;14.90;10.93;;;;;;;-0.05;90.99;100322.66;1813557;79;21100;-65
2020/12/02 00:39:57;;;;;;;14.25;10.18;;;;;;;-0.06;90.92;100319.66;1813601;79;21062;-65
2020/12/02 00:42:24;;;;;;;16.60;10.68;;;;;;;-0.05;91.05;100314.99;1813591;79;21073;-65
2020/12/02 00:44:52;;;;;;;15.18;10.90;;;;;;;-0.01;91.02;100310.37;1813584;79;21669;-65
2020/12/02 00:47:23;;;;;;;13.40;10.13;;;;;;;-0.01;90.77;100310.37;1813689;79;22758;-65
2020/12/02 00:49:54;;;;;;;14.98;10.60;;;;;;;-0.01;90.92;100314.20;1813580;79;21077;-65
2020/12/02 00:52:23;;;;;;;17.95;10.72;;;;;;;0.01;90.88;100310.36;1814052;79;21577;-64
2020/12/02 00:54:52;;;;;;;14.85;11.08;;;;;;;0.02;90.84;100326.15;1814483;78;21132;-64
2020/12/02 00:57:30;;;;;;;16.17;11.40;;;;;;;0.04;90.69;100321.05;1814638;79;21626;-65
2020/12/02 00:59:59;;;;;;;15.60;10.98;;;;;;;0.03;90.63;100319.34;1814662;79;21485;-65
2020/12/02 01:02:44;;;;;;;16.48;11.30;;;;;;;-0.01;90.64;100314.20;1814685;79;20942;-64
2020/12/02 01:05:14;;;;;;;15.13;10.88;;;;;;;-0.03;90.65;100313.73;1814332;79;21136;-65
2020/12/02 01:07:44;;;;;;;21.17;12.13;;;;;;;-0.01;90.88;100317.18;1814470;79;21522;-65
2020/12/02 01:10:12;;;;;;;16.10;11.18;;;;;;;0.03;91.02;100317.64;1814104;79;21512;-65
2020/12/02 01:12:46;;;;;;;17.17;11.75;;;;;;;0.09;91.03;100320.30;1809445;79;21136;-65
2020/12/02 01:15:17;;;;;;;14.43;11.48;;;;;;;0.16;90.97;100318.27;1808169;79;21137;-66
2020/12/02 01:17:47;;;;;;;15.55;10.78;;;;;;;0.21;90.79;100320.88;1780246;79;21046;-64
2020/12/02 01:20:14;;;;;;;15.75;11.35;;;;;;;0.27;90.57;100324.80;1777337;79;21050;-65
2020/12/02 01:22:43;;;;;;;17.52;12.10;;;;;;;0.29;90.46;100316.73;1808055;79;21105;-66
2020/12/02 01:25:19;;;;;;;15.90;11.78;;;;;;;0.32;90.33;100315.50;1807800;79;21603;-66
2020/12/02 01:28:01;;;;;;;17.62;12.23;;;;;;;0.30;89.99;100312.91;1807915;79;21469;-64
2020/12/02 01:30:28;;;;;;;14.75;10.93;;;;;;;0.31;90.07;100315.05;1779030;79;21107;-65
2020/12/02 01:32:57;;;;;;;15.55;11.68;;;;;;;0.31;90.06;100308.23;1807847;79;21062;-65
2020/12/02 01:35:27;;;;;;;15.85;12.03;;;;;;;0.32;89.84;100310.38;1807717;78;21636;-65
2020/12/02 01:38:04;;;;;;;16.32;12.28;;;;;;;0.29;89.95;100311.61;1807884;79;21474;-65
2020/12/02 01:40:33;;;;;;;18.70;12.78;;;;;;;0.28;89.91;100313.31;1807820;79;21525;-65
2020/12/02 01:43:05;;;;;;;17.27;12.07;;;;;;;0.27;89.81;100309.45;1807836;79;21125;-65
2020/12/02 01:45:43;;;;;;;19.87;13.43;;;;;;;0.27;89.84;100305.61;1807869;79;21132;-65
2020/12/02 01:48:52;;;;;;;18.23;13.25;;;;;;;0.26;90.10;100303.89;1807892;79;21160;-65
2020/12/02 01:51:50;;;;;;;18.32;13.30;;;;;;;0.30;90.22;100298.84;1778355;79;21369;-65
2020/12/02 01:54:44;;;;;;;17.95;12.45;;;;;;;0.35;90.01;100296.35;1807773;79;21505;-65
2020/12/02 01:57:27;;;;;;;18.25;12.70;;;;;;;0.38;90.03;100291.28;1790757;78;21129;-65
2020/12/02 02:00:12;;;;;;;;;;;;;;;0.40;89.72;100292.58;1810551;79;21038;-65
2020/12/02 02:02:45;;;;;;;18.45;12.30;;;;;;;0.39;89.85;100285.73;1807944;79;21559;-65
2020/12/02 02:05:16;;;;;;;;;;;;;;;0.40;89.81;100290.02;1810557;79;21351;-65
2020/12/02 02:07:44;;;;;;;20.08;13.05;;;;;;;0.37;89.73;100287.00;1807918;78;20581;-66
2020/12/02 02:10:19;;;;;;;19.57;13.28;;;;;;;0.35;89.69;100291.23;1807805;78;21628;-66
2020/12/02 02:12:58;;;;;;;19.57;12.18;;;;;;;0.33;89.59;100286.52;1811526;79;21445;-65
2020/12/02 02:15:51;;;;;;;17.57;12.73;;;;;;;0.33;89.89;100285.23;1813590;79;21065;-65
2020/12/02 02:18:27;;;;;;;14.83;11.68;;;;;;;0.34;89.81;100283.11;1813585;79;21447;-65
2020/12/02 02:21:07;;;;;;;17.62;11.97;;;;;;;0.37;90.10;100281.88;1813574;79;21072;-65
2020/12/02 02:23:34;;;;;;;16.25;11.70;;;;;;;0.44;89.94;100282.38;1813521;79;21552;-66
2020/12/02 02:26:32;;;;;;;15.50;12.63;;;;;;;0.45;89.70;100276.41;1813476;78;21761;-66
2020/12/02 02:29:20;;;;;;;17.17;12.60;;;;;;;0.45;89.83;100278.97;1813662;78;21576;-66
2020/12/02 02:32:12;;;;;;;16.30;11.45;;;;;;;0.53;89.89;100271.40;1813379;79;21345;-66
2020/12/02 02:34:42;;;;;;;17.48;11.63;;;;;;;0.55;89.72;100278.27;1813272;77;21568;-66
2020/12/02 02:37:11;;;;;;;15.68;11.35;;;;;;;0.60;89.55;100275.31;1813511;79;21148;-66
2020/12/02 02:39:39;;;;;;;13.78;9.93;;;;;;;0.61;89.31;100280.87;1813516;79;21061;-66
2020/12/02 02:42:25;;;;;;;17.80;11.38;;;;;;;0.63;89.36;100275.77;1813504;78;21069;-66
2020/12/02 02:44:52;;;;;;;12.93;10.45;;;;;;;0.61;89.21;100280.87;1813492;79;23508;-65
2020/12/02 02:47:21;;;;;;;13.98;10.55;;;;;;;0.60;89.07;100284.27;1813532;79;21541;-65
2020/12/02 02:49:49;;;;;;;12.23;9.78;;;;;;;0.57;89.00;100280.84;1813522;78;21490;-66
2020/12/02 02:52:18;;;;;;;14.95;10.48;;;;;;;0.55;89.06;100278.27;1813435;79;21061;-65
2020/12/02 02:54:46;;;;;;;13.45;10.90;;;;;;;0.54;89.26;100280.38;1813487;79;21069;-66
2020/12/02 02:57:13;;;;;;;16.25;11.70;;;;;;;0.59;89.46;100279.16;1813529;79;21201;-65
2020/12/02 02:59:41;;;;;;;15.45;11.73;;;;;;;0.65;89.42;100276.65;1813470;79;21545;-65
2020/12/02 03:02:12;;;;;;;13.68;10.35;;;;;;;0.68;89.22;100277.55;1813501;78;21585;-65
2020/12/02 03:04:39;;;;;;;11.18;9.45;;;;;;;0.71;89.01;100279.28;1813495;79;21160;-65
2020/12/02 03:07:12;;;;;;;12.53;9.48;;;;;;;0.72;88.97;100281.01;1813544;79;21049;-65
2020/12/02 03:09:41;;;;;;;14.15;11.25;;;;;;;0.76;89.11;100280.63;1813644;79;21225;-66
2020/12/02 03:12:08;;;;;;;12.80;10.48;;;;;;;0.79;88.65;100280.66;1811889;78;21061;-66
2020/12/02 03:14:41;;;;;;;12.73;10.00;;;;;;;0.79;88.79;100282.80;1807768;79;21058;-65
2020/12/02 03:17:09;;;;;;;12.88;9.60;;;;;;;0.85;88.69;100284.13;1807782;79;21830;-65
2020/12/02 03:19:37;;;;;;;11.57;10.35;;;;;;;0.89;88.44;100283.32;1807761;78;21494;-65
2020/12/02 03:22:08;;;;;;;12.70;10.48;;;;;;;0.93;88.42;100287.64;1778973;79;21164;-65
2020/12/02 03:24:36;;;;;;;13.13;10.23;;;;;;;0.97;88.27;100285.97;1805004;79;21065;-65
2020/12/02 03:27:03;;;;;;;13.80;10.43;;;;;;;1.01;88.14;100280.87;1807791;79;21108;-65
2020/12/02 03:29:31;;;;;;;14.50;10.18;;;;;;;1.06;87.94;100288.61;1807734;79;21144;-65
2020/12/02 03:31:58;;;;;;;13.38;9.70;;;;;;;1.07;87.67;100292.89;1807764;78;21053;-65
2020/12/02 03:34:25;;;;;;;13.38;10.38;;;;;;;1.09;87.53;100286.08;1807727;78;21227;-66
2020/12/02 03:36:53;;;;;;;13.65;10.40;;;;;;;1.11;87.18;100286.10;1807699;79;21546;-65
2020/12/02 03:39:20;;;;;;;12.80;10.18;;;;;;;1.10;87.28;100285.23;1807739;78;21108;-65
2020/12/02 03:41:47;;;;;;;12.43;10.25;;;;;;;1.14;87.23;100283.58;1807759;79;21057;-65
2020/12/02 03:44:15;;;;;;;14.13;10.60;;;;;;;1.15;86.91;100279.75;1807809;79;21041;-65
2020/12/02 03:46:42;;;;;;;11.83;9.93;;;;;;;1.17;86.68;100277.20;1807696;79;21160;-65
2020/12/02 03:49:10;;;;;;;13.90;10.58;;;;;;;1.16;86.50;100272.50;1807676;79;21141;-66
2020/12/02 03:51:37;;;;;;;14.15;10.18;;;;;;;1.15;86.35;100277.61;1778896;79;21089;-66
2020/12/02 03:54:05;;;;;;;13.50;9.93;;;;;;;1.14;86.26;100274.19;1807770;79;21494;-66
2020/12/02 03:56:33;;;;;;;13.78;10.70;;;;;;;1.14;86.22;100277.17;1807773;78;21147;-65
2020/12/02 03:59:01;;;;;;;13.22;9.98;;;;;;;1.12;86.01;100282.28;1807893;79;21369;-65
2020/12/02 04:01:28;;;;;;;12.78;9.83;;;;;;;1.12;85.91;100282.70;1807870;79;21663;-65
2020/12/02 04:03:56;;;;;;;11.70;9.90;;;;;;;1.12;85.83;100285.26;1807917;79;21494;-65
2020/12/02 04:06:24;;;;;;;14.05;10.95;;;;;;;1.09;85.81;100278.82;1807892;79;21079;-65
2020/12/02 04:08:51;;;;;;;13.70;10.28;;;;;;;1.08;85.80;100280.94;1807897;79;21097;-64
2020/12/02 04:11:19;;;;;;;15.10;11.08;;;;;;;1.06;85.66;100279.64;1807959;79;22256;-65
2020/12/02 04:13:47;;;;;;;13.95;9.98;;;;;;;1.04;85.64;100278.34;1807694;77;21081;-67
2020/12/02 04:16:15;;;;;;;13.35;10.23;;;;;;;1.05;85.63;100284.33;1807894;79;21482;-64
2020/12/02 04:18:44;;;;;;;14.65;11.45;;;;;;;1.06;85.60;100285.19;1807902;79;21114;-65
2020/12/02 04:21:11;;;;;;;13.72;10.85;;;;;;;1.06;85.67;100282.62;1807891;79;21097;-65
2020/12/02 04:23:38;;;;;;;14.70;11.73;;;;;;;1.09;85.69;100282.66;1807959;78;23696;-65
2020/12/02 04:26:06;;;;;;;15.98;12.40;;;;;;;1.13;85.61;100285.70;1807819;79;21069;-65
2020/12/02 04:28:33;;;;;;;18.65;13.48;;;;;;;1.10;85.33;100281.40;1807861;79;21152;-65
2020/12/02 04:31:01;;;;;;;19.60;13.65;;;;;;;1.09;85.51;100285.22;1807849;79;21172;-65
2020/12/02 04:33:28;;;;;;;19.65;13.62;;;;;;;1.11;85.47;100286.10;1807877;79;21490;-65
2020/12/02 04:35:55;;;;;;;18.32;14.10;;;;;;;1.09;85.51;100283.94;1807831;78;21529;-65
2020/12/02 04:38:24;;;;;;;17.75;12.35;;;;;;;1.13;85.55;100291.68;1807835;79;21060;-66
2020/12/02 04:40:51;;;;;;;17.52;12.18;;;;;;;1.12;85.30;100289.10;1807842;79;21105;-65
2020/12/02 04:43:34;;;;;;;16.65;11.68;;;;;;;1.07;85.21;100290.75;1807868;79;21066;-65
2020/12/02 04:46:04;;;;;;;16.30;11.57;;;;;;;1.03;85.37;100297.54;1807960;78;21097;-65
2020/12/02 04:48:32;;;;;;;14.40;11.00;;;;;;;1.03;85.52;100297.13;1807910;79;21572;-65
2020/12/02 04:51:14;;;;;;;16.82;12.75;;;;;;;1.07;85.52;100301.00;1807816;78;21582;-65
2020/12/02 04:53:44;;;;;;;16.75;12.65;;;;;;;1.03;85.38;100294.98;1807840;78;21177;-65
2020/12/02 04:56:11;;;;;;;17.85;13.72;;;;;;;1.01;85.47;100298.80;1807868;79;21120;-64
2020/12/02 04:58:39;;;;;;;19.32;13.50;;;;;;;0.98;85.61;100292.39;1807879;79;21061;-65
2020/12/02 05:01:21;;;;;;;16.77;12.63;;;;;;;0.98;85.66;100292.82;1807876;79;21405;-65
2020/12/02 05:03:56;;;;;;;18.25;14.20;;;;;;;1.02;85.84;100298.38;1807784;79;21493;-65
2020/12/02 05:06:31;;;;;;;19.60;13.98;;;;;;;1.00;85.58;100293.66;1807851;79;21089;-65
2020/12/02 05:09:23;;;;;;;18.48;13.53;;;;;;;1.00;85.67;100293.24;1807602;79;21072;-66
2020/12/02 05:12:05;;;;;;;16.95;13.28;;;;;;;0.99;85.47;100294.12;1807881;79;21556;-65
2020/12/02 05:14:42;;;;;;;17.80;13.13;;;;;;;0.96;85.48;100294.50;1807897;78;21218;-65
2020/12/02 05:17:25;;;;;;;18.15;13.40;;;;;;;0.97;85.55;100303.48;1807814;79;21168;-65
2020/12/02 05:20:06;;;;;;;;;;;;;;;0.98;85.61;100306.48;1810571;79;21114;-65
2020/12/02 05:22:40;;;;;;;20.65;15.23;;;;;;;1.03;85.80;100305.23;1803463;79;20220;-65
2020/12/02 05:25:29;;;;;;;19.90;14.23;;;;;;;1.11;85.87;100310.02;1807901;79;21505;-65
2020/12/02 05:28:29;;;;;;;18.35;13.70;;;;;;;1.18;85.67;100309.25;1807816;79;23599;-65
2020/12/02 05:31:22;;;;;;;17.57;12.88;;;;;;;1.22;85.35;100311.39;1807857;79;21073;-65
2020/12/02 05:33:49;;;;;;;17.98;13.65;;;;;;;1.20;85.30;100310.09;1807900;78;21147;-66
2020/12/02 05:36:24;;;;;;;19.40;13.80;;;;;;;1.25;85.26;100305.88;1778930;79;21070;-66
2020/12/02 05:39:05;;;;;;;21.90;14.98;;;;;;;1.26;85.09;100311.44;1807971;79;21572;-66
2020/12/02 05:41:33;;;;;;;22.73;15.05;;;;;;;1.24;85.04;100314.83;1807867;79;21360;-65
2020/12/02 05:44:18;;;;;;;22.90;16.48;;;;;;;1.23;84.97;100312.69;1804963;78;21135;-65
2020/12/02 05:46:54;;;;;;;20.05;15.38;;;;;;;1.20;84.90;100315.22;1807931;79;21486;-65
2020/12/02 05:49:43;;;;;;;20.90;14.83;;;;;;;1.15;84.99;100310.91;1805071;79;21113;-66
2020/12/02 05:52:18;;;;;;;27.77;19.05;;;;;;;1.16;85.21;100308.37;1807926;79;21099;-65
2020/12/02 05:54:47;;;;;;;21.20;15.18;;;;;;;1.13;85.06;100310.89;1806546;79;21358;-66
2020/12/02 05:57:16;;;;;;;22.80;15.85;;;;;;;1.11;85.19;100313.86;1807016;79;21157;-66
2020/12/02 05:59:47;;;;;;;21.80;15.08;;;;;;;1.08;85.13;100325.35;1807387;78;21109;-66
2020/12/02 06:02:16;;;;;;;22.80;16.37;;;;;;;1.00;85.26;100323.98;1806717;79;21719;-66
2020/12/02 06:04:44;;;;;;;19.70;13.95;;;;;;;0.99;85.42;100324.85;1798093;79;21177;-65
2020/12/02 06:07:11;;;;;;;19.92;14.05;;;;;;;0.99;85.53;100324.85;1745621;80;21748;-66
2020/12/02 06:09:43;;;;;;;23.62;15.60;;;;;;;1.01;85.66;100326.13;1791769;80;21673;-65
2020/12/02 06:12:13;;;;;;;25.70;15.40;;;;;;;1.06;85.96;100329.59;1800555;79;21196;-66
2020/12/02 06:14:42;;;;;;;26.15;17.00;;;;;;;1.13;85.83;100333.09;1775195;79;21577;-65
2020/12/02 06:17:26;;;;;;;23.35;15.65;;;;;;;1.12;85.68;100330.09;1775784;79;21207;-65
2020/12/02 06:19:55;;;;;;;25.02;16.55;;;;;;;1.11;85.62;100327.09;1806903;78;22316;-65
2020/12/02 06:22:51;;;;;;;25.35;16.97;;;;;;;1.07;85.54;100331.32;1756828;80;21194;-67
2020/12/02 06:25:51;;;;;;;19.15;14.33;;;;;;;1.03;85.70;100335.55;1753126;78;21178;-65
2020/12/02 06:28:33;;;;;;;22.60;16.07;;;;;;;0.99;85.74;100332.96;1820120;78;21532;-66
2020/12/02 06:31:13;;;;;;;22.58;15.70;;;;;;;0.94;85.99;100332.90;1838886;78;25191;-65
2020/12/02 06:33:45;;;;;;;21.00;14.65;;;;;;;0.99;86.26;100338.08;1799056;79;21208;-64
2020/12/02 06:36:22;;;;;;;22.05;14.55;;;;;;;1.00;86.20;100339.77;1756216;80;21112;-67
2020/12/02 06:39:10;;;;;;;20.65;14.83;;;;;;;1.00;85.99;100338.48;1744607;81;21148;-66
2020/12/02 06:41:44;;;;;;;22.02;15.15;;;;;;;0.94;86.16;100332.90;1747568;81;21554;-67
2020/12/02 06:44:17;;;;;;;25.23;16.87;;;;;;;0.98;86.59;100336.36;1746799;81;21206;-67
2020/12/02 06:47:22;;;;;;;24.67;16.45;;;;;;;1.03;86.43;100338.11;1727140;81;21687;-70
2020/12/02 06:49:55;;;;;;;19.50;14.23;;;;;;;1.05;86.57;100335.56;1754003;79;21171;-65
2020/12/02 06:52:32;;;;;;;18.30;13.15;;;;;;;1.16;86.60;100335.27;1713850;81;21705;-67
2020/12/02 06:55:13;;;;;;;23.90;15.72;;;;;;;1.23;86.30;100333.19;1726860;81;21108;-67
2020/12/02 06:57:41;;;;;;;21.42;15.08;;;;;;;1.25;86.19;100332.78;1755355;81;21609;-64
2020/12/02 07:00:25;;;;;;;22.98;15.05;;;;;;;1.28;86.03;100334.10;1753352;81;21389;-66
2020/12/02 07:03:00;;;;;;;23.60;15.88;;;;;;;1.30;85.89;100340.11;1747835;80;21255;-66
2020/12/02 07:05:41;;;;;;;24.52;16.17;;;;;;;1.31;85.94;100332.85;1752658;81;21178;-63
2020/12/02 07:08:26;;;;;;;18.67;14.03;;;;;;;1.37;86.03;100339.75;1751654;80;21194;-65
2020/12/02 07:11:08;;;;;;;23.32;16.12;;;;;;;1.47;86.04;100340.25;1722554;81;21123;-69
2020/12/02 07:13:40;;;;;;;25.62;16.82;;;;;;;1.58;85.82;100339.09;1750569;80;21590;-64
2020/12/02 07:16:22;;;;;;;23.77;15.68;;;;;;;1.66;85.58;100342.55;1749483;82;21654;-67
2020/12/02 07:19:00;;;;;;;25.77;17.15;;;;;;;1.70;85.36;100341.74;1756753;81;21210;-67
2020/12/02 07:21:51;;;;;;;22.13;15.30;;;;;;;1.70;85.02;100343.02;1731455;81;21178;-65
2020/12/02 07:24:30;;;;;;;21.73;14.80;;;;;;;1.71;84.90;100346.02;1757880;80;21161;-65
2020/12/02 07:26:58;;;;;;;19.95;14.78;;;;;;;1.75;84.77;100345.63;1732046;81;21367;-64
2020/12/02 07:29:28;;;;;;;25.05;16.80;;;;;;;1.77;84.78;100343.94;1757214;81;21177;-65
2020/12/02 07:32:13;;;;;;;25.10;18.73;;;;;;;1.83;84.87;100341.41;1757780;80;21563;-65
2020/12/02 07:34:41;;;;;;;24.85;17.62;;;;;;;1.87;84.73;100346.58;1758945;80;21133;-64
2020/12/02 07:37:15;;;;;;;23.07;14.95;;;;;;;1.93;84.63;100352.19;1759698;81;21123;-64
2020/12/02 07:39:53;;;;;;;26.62;18.67;;;;;;;1.97;84.11;100350.08;1752259;81;21645;-63
2020/12/02 07:42:35;;;;;;;23.92;17.02;;;;;;;1.93;83.90;100350.91;1729305;81;21542;-64
2020/12/02 07:45:17;;;;;;;21.93;16.85;;;;;;;1.95;84.33;100346.64;1742330;80;21587;-65
2020/12/02 07:48:08;;;;;;;20.02;15.80;;;;;;;2.03;84.26;100352.67;1736615;81;26892;-66
2020/12/02 07:50:53;;;;;;;24.65;16.37;;;;;;;2.08;83.87;100353.14;1734155;80;21471;-64
2020/12/02 07:53:57;;;;;;;19.80;15.40;;;;;;;2.14;83.54;100355.33;1759521;81;21226;-63
2020/12/02 07:56:32;;;;;;;21.42;17.90;;;;;;;2.18;83.54;100358.36;1756362;80;21078;-64
2020/12/02 07:59:17;;;;;;;25.32;21.40;;;;;;;2.24;83.24;100349.39;1704755;83;21255;-65
2020/12/02 08:02:03;;;;;;;46.37;37.25;;;;;;;2.26;83.13;100347.27;1719285;83;21082;-65
2020/12/02 08:04:51;;;;;;;30.10;22.98;;;;;;;2.37;82.91;100349.48;1728718;83;21185;-64
2020/12/02 08:07:19;;;;;;;23.05;16.97;;;;;;;2.46;82.56;100348.66;1728154;81;21416;-62
2020/12/02 08:09:51;;;;;;;17.55;13.85;;;;;;;2.48;82.13;100348.67;1727793;83;21188;-66
2020/12/02 08:12:27;;;;;;;20.68;15.18;;;;;;;2.48;82.00;100346.11;1727956;83;21266;-66
2020/12/02 08:15:10;;;;;;;20.30;14.90;;;;;;;2.53;81.72;100343.14;1727586;81;21179;-65
2020/12/02 08:17:41;;;;;;;25.40;18.48;;;;;;;2.61;81.44;100344.88;1727701;81;21162;-66
2020/12/02 08:20:32;;;;;;;24.80;16.15;;;;;;;2.66;81.00;100345.77;1728339;81;21253;-64
2020/12/02 08:23:14;;;;;;;21.57;14.13;;;;;;;2.69;80.81;100338.08;1736308;80;21147;-67
2020/12/02 08:26:03;;;;;;;17.23;13.63;;;;;;;2.72;80.39;100338.52;1759036;81;21207;-65
2020/12/02 08:28:37;;;;;;;20.70;15.38;;;;;;;2.73;80.21;100340.23;1755221;80;21166;-67
2020/12/02 08:31:21;;;;;;;20.68;13.40;;;;;;;2.78;80.18;100336.41;1753387;80;21529;-66
2020/12/02 08:34:23;;;;;;;18.85;13.03;;;;;;;2.79;79.89;100336.42;1749873;81;21441;-67
2020/12/02 08:37:12;;;;;;;17.32;13.65;;;;;;;2.78;79.83;100333.84;1750689;81;21173;-65
2020/12/02 08:39:46;;;;;;;20.75;13.90;;;;;;;2.81;79.57;100334.69;1748978;81;21143;-69
2020/12/02 08:42:35;;;;;;;23.00;15.45;;;;;;;2.84;79.60;100338.98;1747673;82;21645;-66
2020/12/02 08:45:21;;;;;;;22.87;16.20;;;;;;;2.84;79.56;100334.70;1720860;82;21166;-66
2020/12/02 08:47:53;;;;;;;25.68;17.45;;;;;;;2.85;79.73;100336.84;1734171;82;21216;-65
2020/12/02 08:50:29;;;;;;;27.00;17.98;;;;;;;2.88;79.60;100333.00;1718123;83;21149;-66
2020/12/02 08:52:59;;;;;;;29.65;18.37;;;;;;;2.91;79.79;100333.88;1720509;80;21175;-65
2020/12/02 08:55:27;;;;;;;31.60;19.40;;;;;;;2.94;79.47;100330.05;1746482;81;21134;-66
2020/12/02 08:57:55;;;;;;;26.37;18.25;;;;;;;2.95;79.22;100334.33;1746981;80;21165;-65
2020/12/02 09:00:24;;;;;;;28.27;18.85;;;;;;;2.92;78.79;100322.75;1747285;82;21370;-65
2020/12/02 09:02:52;;;;;;;27.22;17.55;;;;;;;2.89;79.01;100332.16;1747903;80;21182;-65
2020/12/02 09:05:20;;;;;;;28.85;18.75;;;;;;;2.87;78.85;100326.16;1738895;80;21129;-65
2020/12/02 09:07:48;;;;;;;34.40;21.52;;;;;;;2.81;78.68;100325.70;1733301;82;21146;-66
2020/12/02 09:10:16;;;;;;;32.25;20.25;;;;;;;2.80;79.02;100323.15;1733351;81;21118;-66
2020/12/02 09:12:52;;;;;;;29.32;18.52;;;;;;;2.82;78.86;100326.13;1744399;80;21430;-67
2020/12/02 09:15:21;;;;;;;28.07;18.77;;;;;;;2.78;78.64;100320.57;1748574;81;21179;-68
2020/12/02 09:17:49;;;;;;;27.85;18.60;;;;;;;2.75;78.21;100323.12;1750544;81;21165;-66
2020/12/02 09:20:17;;;;;;;28.55;18.95;;;;;;;2.69;78.15;100322.67;1751089;81;21940;-64
2020/12/02 09:22:45;;;;;;;32.13;19.95;;;;;;;2.61;78.10;100320.91;1750975;81;21108;-63
2020/12/02 09:25:13;;;;;;;31.12;20.60;;;;;;;2.52;78.44;100315.33;1750329;81;21273;-64
2020/12/02 09:27:41;;;;;;;28.02;18.35;;;;;;;2.52;78.72;100317.89;1752551;81;21213;-66
2020/12/02 09:30:09;;;;;;;28.57;18.20;;;;;;;2.55;78.76;100311.48;1754317;81;21133;-62
2020/12/02 09:32:37;;;;;;;30.60;19.82;;;;;;;2.56;78.61;100317.48;1755789;80;21066;-66
2020/12/02 09:35:07;;;;;;;30.62;19.55;;;;;;;2.57;78.83;100317.49;1754746;80;21668;-65
2020/12/02 09:37:36;;;;;;;29.32;18.55;;;;;;;2.61;78.65;100314.48;1752462;80;21398;-66
2020/12/02 09:40:07;;;;;;;28.65;19.30;;;;;;;2.65;78.83;100317.08;1755103;80;21206;-62
2020/12/02 09:43:02;;;;;;;30.43;20.82;;;;;;;2.70;78.99;100309.40;1726779;81;21259;-63
2020/12/02 09:46:08;;;;;;;26.05;18.48;;;;;;;2.79;78.83;100303.45;1753236;80;21574;-63
2020/12/02 09:48:38;;;;;;;27.05;17.57;;;;;;;2.89;78.78;100305.17;1754087;81;21225;-63
2020/12/02 09:51:20;;;;;;;30.20;17.62;;;;;;;2.91;78.43;100304.76;1756000;81;21197;-63
2020/12/02 09:53:49;;;;;;;22.85;16.42;;;;;;;2.95;78.37;100304.78;1753843;80;21514;-63
2020/12/02 09:56:18;;;;;;;24.90;15.80;;;;;;;3.03;77.91;100299.64;1756099;80;21474;-63
2020/12/02 09:58:47;;;;;;;24.07;17.62;;;;;;;3.09;77.57;100299.66;1755619;80;21594;-62
2020/12/02 10:01:19;;;;;;;28.38;19.57;;;;;;;3.10;77.19;100302.66;1755807;81;21078;-62
2020/12/02 10:04:02;;;;;;;27.13;18.00;;;;;;;3.10;77.37;100300.95;1754079;80;21427;-65
2020/12/02 10:06:51;;;;;;;24.95;17.20;;;;;;;3.09;77.29;100303.09;1752826;80;21577;-63
2020/12/02 10:10:17;;;;;;;23.18;16.48;;;;;;;3.10;77.12;100300.09;1752360;80;21424;-64
2020/12/02 10:13:48;;;;;;;23.83;15.50;;;;;;;3.11;77.16;100297.53;1753693;81;21634;-63
2020/12/02 10:16:39;;;;;;;25.32;17.35;;;;;;;3.19;76.89;100301.83;1754581;81;21046;-62
2020/12/02 10:19:44;;;;;;;27.02;17.25;;;;;;;3.27;76.68;100298.40;1872913;76;22759;-67
2020/12/02 10:22:51;;;;;;;24.60;17.00;;;;;;;3.25;76.87;100302.68;1839094;77;21148;-66
2020/12/02 10:25:47;;;;;;;29.35;17.65;;;;;;;3.34;77.18;100300.56;1841189;78;21189;-66
2020/12/02 10:28:37;;;;;;;23.85;16.37;;;;;;;3.43;76.79;100301.84;1839310;77;21208;-66
2020/12/02 10:31:42;;;;;;;25.25;16.12;;;;;;;3.47;76.60;100302.27;1840429;77;21196;-67
2020/12/02 10:34:30;;;;;;;22.58;16.90;;;;;;;3.51;75.99;100295.42;1835797;78;21275;-65
2020/12/02 10:37:31;;;;;;;25.68;18.23;;;;;;;3.59;75.83;100293.30;1910871;74;22581;-63
2020/12/02 10:39:59;;;;;;;26.55;19.40;;;;;;;3.56;75.75;100290.72;1847841;77;21105;-65
2020/12/02 10:42:51;;;;;;;26.85;17.80;;;;;;;3.58;75.80;100288.14;1823030;77;21178;-63
2020/12/02 10:45:21;;;;;;;25.08;16.62;;;;;;;3.59;75.28;100285.58;1816385;79;20994;-62
2020/12/02 10:48:21;;;;;;;24.72;15.68;;;;;;;3.57;75.12;100290.29;1816556;79;21576;-63
2020/12/02 10:50:51;;;;;;;20.30;15.35;;;;;;;3.55;75.26;100285.14;1839739;77;20994;-63
2020/12/02 10:53:26;;;;;;;25.40;16.95;;;;;;;3.56;74.69;100289.44;1849255;77;21134;-63
2020/12/02 10:55:54;;;;;;;25.27;16.57;;;;;;;3.57;74.62;100286.00;1849143;77;21543;-62
2020/12/02 10:58:28;;;;;;;21.57;15.65;;;;;;;3.58;74.75;100294.15;1849568;77;21012;-64
2020/12/02 11:01:00;;;;;;;22.65;15.58;;;;;;;3.58;74.50;100288.14;1843076;76;20943;-66
2020/12/02 11:03:38;;;;;;;21.50;16.67;;;;;;;3.56;74.90;100284.29;1840491;77;21173;-65
2020/12/02 11:06:32;;;;;;;19.45;13.80;;;;;;;3.58;74.64;100284.29;1816872;77;21229;-64
2020/12/02 11:09:21;;;;;;;18.23;13.53;;;;;;;3.58;74.23;100292.00;1830496;77;21379;-66
2020/12/02 11:12:14;;;;;;;18.00;13.40;;;;;;;3.56;73.82;100292.43;1849312;77;21113;-63
2020/12/02 11:15:24;;;;;;;19.35;12.88;;;;;;;3.53;73.58;100293.28;1848671;77;21037;-64
2020/12/02 11:18:01;;;;;;;15.68;12.60;;;;;;;3.42;74.06;100290.69;1849411;77;21145;-65
2020/12/02 11:20:35;;;;;;;15.58;12.43;;;;;;;3.38;73.96;100287.72;1843461;77;21124;-66
2020/12/02 11:23:14;;;;;;;18.05;12.78;;;;;;;3.31;74.02;100291.13;1788233;79;21139;-66
2020/12/02 11:26:01;;;;;;;18.77;13.70;;;;;;;3.31;74.32;100283.84;1787578;79;21073;-63
2020/12/02 11:28:29;;;;;;;18.67;13.83;;;;;;;3.32;74.32;100282.56;1770493;79;21140;-63
2020/12/02 11:31:02;;;;;;;18.40;13.78;;;;;;;3.30;73.77;100283.41;1813128;77;21544;-65
2020/12/02 11:33:47;;;;;;;16.40;12.53;;;;;;;3.24;73.94;100284.25;1836131;76;21119;-65
2020/12/02 11:36:32;;;;;;;15.98;12.13;;;;;;;3.21;74.01;100280.39;1815222;78;21553;-65
2020/12/02 11:39:38;;;;;;;15.65;11.95;;;;;;;3.19;73.61;100284.70;1816367;78;21168;-65
2020/12/02 11:42:20;;;;;;;13.70;11.28;;;;;;;3.08;73.75;100283.81;1816166;79;21113;-65
2020/12/02 11:44:59;;;;;;;17.02;12.90;;;;;;;3.00;74.48;100281.20;1816306;78;21152;-65
2020/12/02 11:47:53;;;;;;;23.67;13.90;;;;;;;3.02;74.80;100283.78;1816182;79;21140;-67
2020/12/02 11:50:24;;;;;;;;;;;;;;;3.06;75.41;100284.23;1818385;79;21338;-64
2020/12/02 11:53:35;;;;;;;102.27;51.65;;;;;;;3.15;75.26;100287.25;1811919;79;20693;-65
2020/12/02 11:56:04;;;;;;;49.83;30.00;;;;;;;3.14;74.88;100279.97;1784735;80;21117;-63
2020/12/02 11:58:32;;;;;;;26.65;20.25;;;;;;;3.08;74.87;100279.95;1785113;80;21178;-64